createdAt,value
2023-02-13T00:00:39.409Z,57.93
2023-02-13T00:03:06.267Z,58.37
2023-02-13T00:05:32.982Z,57.62
2023-02-13T00:07:59.614Z,57.83
2023-02-13T00:10:26.239Z,57.73
2023-02-13T00:12:52.918Z,57.96
2023-02-13T00:15:19.585Z,58.83
2023-02-13T00:17:46.244Z,59.08
2023-02-13T00:20:12.868Z,58.78
2023-02-13T00:22:39.516Z,59.11
2023-02-13T00:25:06.717Z,58.65
2023-02-13T00:27:33.316Z,58.94
2023-02-13T00:29:59.937Z,58.96
2023-02-13T00:32:26.547Z,58.89
2023-02-13T00:34:53.210Z,58.88
2023-02-13T00:37:19.897Z,59.04
2023-02-13T00:39:46.596Z,59.03
2023-02-13T00:42:13.293Z,59.34
2023-02-13T00:44:39.934Z,59.25
2023-02-13T00:47:06.553Z,59.77
2023-02-13T00:49:33.251Z,59.92
2023-02-13T00:51:59.882Z,59.17
2023-02-13T00:54:26.475Z,58.97
2023-02-13T00:56:53.144Z,58.34
2023-02-13T00:59:19.797Z,58.62
2023-02-13T01:01:46.496Z,58.35
2023-02-13T01:04:13.223Z,59.28
2023-02-13T01:06:40.447Z,60.15
2023-02-13T01:09:07.086Z,59.74
2023-02-13T01:11:33.755Z,59.54
2023-02-13T01:14:00.409Z,58.88
2023-02-13T01:16:27.204Z,59.65
2023-02-13T01:18:53.958Z,59.72
2023-02-13T01:21:20.620Z,60.12
2023-02-13T01:23:47.341Z,60.20
2023-02-13T01:26:14.040Z,60.09
2023-02-13T01:28:40.737Z,60.92
2023-02-13T01:31:07.535Z,61.25
2023-02-13T01:33:34.266Z,61.06
2023-02-13T01:36:00.881Z,61.02
2023-02-13T01:38:27.564Z,60.91
2023-02-13T01:40:54.341Z,61.09
2023-02-13T01:43:21.125Z,60.82
2023-02-13T01:45:47.734Z,60.12
2023-02-13T01:48:14.410Z,60.59
2023-02-13T01:50:41.035Z,60.84
2023-02-13T01:53:07.650Z,61.36
2023-02-13T01:55:34.544Z,61.22
2023-02-13T01:58:01.604Z,60.62
2023-02-13T02:00:28.258Z,60.32
2023-02-13T02:02:55.262Z,60.26
2023-02-13T02:05:22.317Z,60.07
2023-02-13T02:07:49.023Z,61.28
2023-02-13T02:10:15.709Z,61.43
2023-02-13T02:12:42.791Z,61.07
2023-02-13T02:15:09.435Z,61.01
2023-02-13T02:17:36.092Z,60.64
2023-02-13T02:20:02.696Z,61.23
2023-02-13T02:22:29.328Z,61.29
2023-02-13T02:24:56.001Z,61.02
2023-02-13T02:27:22.702Z,61.34
2023-02-13T02:29:49.379Z,61.00
2023-02-13T02:32:15.993Z,60.42
2023-02-13T02:34:42.645Z,60.71
2023-02-13T02:37:09.291Z,60.65
2023-02-13T02:39:35.983Z,60.83
2023-02-13T02:42:02.679Z,60.78
2023-02-13T02:44:29.339Z,60.99
2023-02-13T02:46:56.014Z,62.08
2023-02-13T02:49:22.717Z,61.38
2023-02-13T02:51:49.351Z,60.98
2023-02-13T02:54:15.994Z,60.97
2023-02-13T02:56:42.730Z,61.16
2023-02-13T02:59:09.416Z,60.74
2023-02-13T03:01:36.076Z,60.95
2023-02-13T03:04:02.798Z,60.73
2023-02-13T03:06:29.445Z,60.63
2023-02-13T03:08:56.090Z,60.51
2023-02-13T03:11:22.692Z,61.19
2023-02-13T03:13:49.340Z,60.95
2023-02-13T03:16:16.043Z,60.88
2023-02-13T03:18:42.714Z,60.68
2023-02-13T03:21:09.433Z,60.43
2023-02-13T03:23:36.110Z,60.98
2023-02-13T03:26:02.775Z,60.90
2023-02-13T03:28:29.495Z,61.04
2023-02-13T03:30:56.628Z,61.00
2023-02-13T03:33:23.420Z,60.65
2023-02-13T03:35:50.035Z,60.76
2023-02-13T03:38:16.681Z,61.15
2023-02-13T03:40:43.327Z,60.46
2023-02-13T03:43:09.979Z,60.51
2023-02-13T03:45:36.646Z,60.58
2023-02-13T03:48:03.263Z,60.89
2023-02-13T03:50:29.857Z,61.19
2023-02-13T03:52:56.510Z,61.10
2023-02-13T03:55:23.126Z,61.40
2023-02-13T03:57:49.854Z,61.89
2023-02-13T04:00:16.530Z,61.79
2023-02-13T04:02:43.239Z,61.55
2023-02-13T04:05:09.884Z,61.47
2023-02-13T04:07:36.557Z,60.90
2023-02-13T04:10:03.165Z,60.94
2023-02-13T04:12:29.817Z,60.99
2023-02-13T04:14:56.523Z,61.30
2023-02-13T04:17:23.211Z,61.38
2023-02-13T04:19:49.843Z,60.99
2023-02-13T04:22:16.491Z,61.52
2023-02-13T04:24:43.196Z,62.17
2023-02-13T04:27:09.924Z,61.35
2023-02-13T04:29:36.564Z,61.26
2023-02-13T04:32:03.331Z,61.63
2023-02-13T04:34:30.043Z,61.54
2023-02-13T04:36:56.738Z,62.20
2023-02-13T04:39:23.342Z,63.09
2023-02-13T04:41:50.035Z,62.95
2023-02-13T04:44:16.743Z,62.51
2023-02-13T04:46:43.429Z,62.41
2023-02-13T04:49:10.119Z,62.05
2023-02-13T04:51:36.796Z,61.87
2023-02-13T04:54:03.469Z,61.82
2023-02-13T04:56:30.212Z,61.91
2023-02-13T04:58:56.864Z,61.51
2023-02-13T05:01:23.609Z,61.71
2023-02-13T05:03:50.275Z,61.86
2023-02-13T05:06:16.925Z,62.29
2023-02-13T05:08:43.578Z,62.06
2023-02-13T05:11:10.213Z,62.19
2023-02-13T05:13:36.894Z,61.67
2023-02-13T05:16:03.592Z,61.88
2023-02-13T05:18:30.185Z,61.52
2023-02-13T05:20:57.070Z,62.26
2023-02-13T05:23:23.918Z,62.19
2023-02-13T05:25:50.609Z,61.85
2023-02-13T05:28:17.271Z,62.38
2023-02-13T05:30:43.911Z,62.58
2023-02-13T05:33:10.661Z,62.83
2023-02-13T05:35:37.310Z,62.39
2023-02-13T05:38:04.002Z,62.64
2023-02-13T05:40:30.726Z,62.74
2023-02-13T05:42:57.386Z,62.57
2023-02-13T05:45:24.072Z,62.06
2023-02-13T05:47:50.686Z,62.50
2023-02-13T05:50:17.353Z,62.99
2023-02-13T05:52:44.069Z,62.87
2023-02-13T05:55:10.710Z,62.58
2023-02-13T05:57:37.414Z,61.91
2023-02-13T06:00:04.093Z,62.41
2023-02-13T06:02:30.818Z,62.29
2023-02-13T06:04:57.582Z,63.37
2023-02-13T06:07:24.201Z,63.49
2023-02-13T06:09:50.852Z,63.03
2023-02-13T06:12:17.448Z,63.72
2023-02-13T06:14:44.052Z,63.27
2023-02-13T06:17:10.860Z,62.96
2023-02-13T06:19:37.498Z,62.40
2023-02-13T06:22:04.092Z,63.78
2023-02-13T06:24:30.770Z,63.64
2023-02-13T06:26:57.435Z,62.90
2023-02-13T06:29:24.085Z,62.58
2023-02-13T06:31:50.810Z,62.50
2023-02-13T06:34:17.493Z,63.86
2023-02-13T06:36:44.156Z,63.95
2023-02-13T06:39:10.812Z,63.66
2023-02-13T06:41:37.493Z,64.17
2023-02-13T06:44:04.176Z,64.00
2023-02-13T06:46:30.870Z,63.94
2023-02-13T06:48:57.635Z,63.99
2023-02-13T06:51:24.305Z,63.15
2023-02-13T06:53:50.953Z,62.92
2023-02-13T06:56:17.596Z,62.87
2023-02-13T06:58:44.200Z,62.09
2023-02-13T07:01:10.963Z,62.91
2023-02-13T07:03:37.726Z,62.62
2023-02-13T07:06:04.589Z,62.06
2023-02-13T07:08:31.405Z,62.66
2023-02-13T07:10:58.354Z,61.93
2023-02-13T07:13:25.479Z,62.31
2023-02-13T07:15:52.115Z,61.93
2023-02-13T07:18:18.769Z,62.12
2023-02-13T07:20:45.458Z,61.74
2023-02-13T07:23:12.102Z,62.65
2023-02-13T07:25:38.718Z,63.07
2023-02-13T07:28:05.439Z,61.53
2023-02-13T07:30:32.145Z,62.51
2023-02-13T07:32:58.856Z,62.51
2023-02-13T07:35:25.469Z,61.92
2023-02-13T07:37:52.067Z,61.20
2023-02-13T07:40:18.692Z,61.22
2023-02-13T07:42:45.287Z,59.88
2023-02-13T07:45:12.019Z,60.14
2023-02-13T07:47:38.655Z,59.83
2023-02-13T07:50:05.297Z,60.09
2023-02-13T07:52:31.966Z,61.05
2023-02-13T07:54:58.696Z,60.44
2023-02-13T07:57:25.308Z,60.86
2023-02-13T07:59:51.968Z,59.61
2023-02-13T08:02:18.632Z,58.81
2023-02-13T08:04:45.292Z,57.47
2023-02-13T08:07:11.955Z,57.69
2023-02-13T08:09:39.777Z,57.38
2023-02-13T08:12:07.486Z,57.82
2023-02-13T08:14:34.157Z,57.38
2023-02-13T08:17:00.789Z,56.94
2023-02-13T08:19:27.475Z,57.59
2023-02-13T08:21:54.183Z,56.91
2023-02-13T08:24:20.857Z,56.18
2023-02-13T08:26:47.689Z,56.16
2023-02-13T08:29:14.375Z,55.62
2023-02-13T08:31:41.140Z,54.95
2023-02-13T08:34:07.804Z,54.79
2023-02-13T08:36:34.406Z,54.91
2023-02-13T08:39:01.103Z,54.54
2023-02-13T08:41:28.014Z,54.25
2023-02-13T08:43:54.743Z,54.20
2023-02-13T08:46:21.438Z,54.04
2023-02-13T08:48:48.214Z,54.69
2023-02-13T08:51:14.851Z,54.33
2023-02-13T08:53:41.556Z,53.87
2023-02-13T08:56:08.283Z,53.49
2023-02-13T08:58:34.949Z,53.66
2023-02-13T09:01:01.657Z,52.96
2023-02-13T09:03:28.383Z,52.48
2023-02-13T09:05:55.005Z,52.41
2023-02-13T09:08:21.724Z,51.71
2023-02-13T09:10:48.370Z,51.41
2023-02-13T09:13:15.017Z,50.77
2023-02-13T09:15:41.664Z,51.83
2023-02-13T09:18:08.305Z,51.75
2023-02-13T09:20:36.067Z,51.37
2023-02-13T09:23:02.875Z,50.44
2023-02-13T09:25:29.583Z,50.46
2023-02-13T09:27:56.292Z,49.75
2023-02-13T09:30:23.099Z,49.35
2023-02-13T09:32:49.760Z,50.34
2023-02-13T09:35:16.404Z,49.92
2023-02-13T09:37:43.074Z,49.57
2023-02-13T09:40:09.740Z,48.94
2023-02-13T09:42:36.393Z,49.51
2023-02-13T09:45:03.088Z,49.14
2023-02-13T09:47:29.755Z,48.14
2023-02-13T09:49:56.404Z,48.15
2023-02-13T09:52:23.040Z,48.57
2023-02-13T09:54:49.706Z,48.12
2023-02-13T09:57:16.368Z,47.16
2023-02-13T09:59:43.028Z,47.35
2023-02-13T10:02:09.674Z,47.68
2023-02-13T10:04:36.378Z,47.05
2023-02-13T10:07:03.045Z,46.54
2023-02-13T10:09:29.729Z,46.96
2023-02-13T10:11:56.346Z,45.58
2023-02-13T10:14:23.009Z,45.74
2023-02-13T10:16:49.738Z,45.93
2023-02-13T10:19:16.358Z,46.07
2023-02-13T10:21:43.018Z,45.75
2023-02-13T10:24:09.656Z,47.19
2023-02-13T10:26:36.343Z,45.77
2023-02-13T10:29:02.955Z,45.84
2023-02-13T10:31:29.797Z,46.44
2023-02-13T10:33:56.474Z,46.32
2023-02-13T10:36:23.127Z,44.97
2023-02-13T10:38:49.805Z,44.00
2023-02-13T10:41:16.496Z,44.59
2023-02-13T10:43:43.148Z,44.67
2023-02-13T10:46:09.785Z,43.96
2023-02-13T10:48:36.484Z,43.41
2023-02-13T10:51:03.140Z,43.23
2023-02-13T10:53:29.854Z,42.78
2023-02-13T10:55:56.841Z,45.25
2023-02-13T10:58:23.836Z,45.52
2023-02-13T11:00:50.490Z,44.11
2023-02-13T11:03:17.159Z,42.90
2023-02-13T11:05:43.783Z,42.68
2023-02-13T11:08:10.425Z,44.47
2023-02-13T11:10:37.052Z,42.93
2023-02-13T11:13:03.733Z,42.73
2023-02-13T11:15:30.382Z,42.02
2023-02-13T11:17:57.053Z,42.44
2023-02-13T11:20:23.739Z,41.16
2023-02-13T11:22:50.372Z,41.81
2023-02-13T11:25:17.049Z,41.82
2023-02-13T11:27:43.661Z,41.56
2023-02-13T11:30:10.266Z,42.21
2023-02-13T11:32:36.862Z,41.49
2023-02-13T11:35:03.536Z,42.06
2023-02-13T11:37:30.137Z,41.46
2023-02-13T11:39:56.780Z,41.53
2023-02-13T11:42:23.392Z,40.61
2023-02-13T11:44:50.075Z,40.29
2023-02-13T11:47:16.734Z,39.61
2023-02-13T11:49:43.421Z,41.11
2023-02-13T11:52:10.081Z,40.47
2023-02-13T11:54:36.806Z,39.96
2023-02-13T11:57:05.108Z,39.66
2023-02-13T11:59:32.185Z,40.30
2023-02-13T12:01:58.894Z,40.03
2023-02-13T12:04:25.544Z,41.43
2023-02-13T12:06:52.227Z,43.28
2023-02-13T12:09:19.127Z,42.65
2023-02-13T12:11:45.815Z,41.50
2023-02-13T12:14:12.526Z,40.31
2023-02-13T12:16:39.346Z,39.33
2023-02-13T12:19:06.264Z,39.57
2023-02-13T12:21:32.936Z,40.54
2023-02-13T12:24:00.080Z,39.76
2023-02-13T12:26:26.980Z,39.14
2023-02-13T12:28:53.862Z,40.21
2023-02-13T12:31:20.533Z,38.85
2023-02-13T12:33:47.457Z,38.90
2023-02-13T12:36:14.105Z,40.87
2023-02-13T12:38:40.745Z,40.70
2023-02-13T12:41:07.618Z,40.81
2023-02-13T12:43:34.656Z,40.53
2023-02-13T12:46:01.339Z,40.46
2023-02-13T12:48:28.086Z,39.28
2023-02-13T12:50:54.992Z,39.18
2023-02-13T12:53:21.678Z,39.00
2023-02-13T12:55:48.592Z,37.97
2023-02-13T12:58:15.261Z,38.06
2023-02-13T13:00:42.137Z,37.70
2023-02-13T13:03:08.771Z,37.22
2023-02-13T13:05:35.430Z,37.82
2023-02-13T13:08:02.062Z,38.47
2023-02-13T13:10:29.163Z,38.73
2023-02-13T13:12:55.799Z,37.62
2023-02-13T13:15:22.498Z,38.85
2023-02-13T13:17:49.142Z,38.23
2023-02-13T13:20:15.790Z,38.76
2023-02-13T13:22:42.590Z,38.88
2023-02-13T13:25:09.223Z,38.82
2023-02-13T13:27:36.048Z,38.54
2023-02-13T13:30:02.695Z,37.46
2023-02-13T13:32:29.352Z,37.51
2023-02-13T13:34:56.168Z,38.19
2023-02-13T13:37:22.834Z,37.91
2023-02-13T13:39:49.718Z,37.62
2023-02-13T13:42:16.324Z,37.92
2023-02-13T13:44:43.173Z,37.72
2023-02-13T13:47:09.794Z,38.02
2023-02-13T13:49:37.045Z,39.22
2023-02-13T13:52:03.848Z,39.67
2023-02-13T13:54:30.699Z,40.59
2023-02-13T13:56:57.308Z,40.65
2023-02-13T13:59:23.958Z,39.49
2023-02-13T14:01:50.839Z,38.51
2023-02-13T14:04:17.517Z,38.54
2023-02-13T14:06:44.500Z,38.23
2023-02-13T14:09:11.121Z,38.04
2023-02-13T14:11:37.761Z,37.91
2023-02-13T14:14:04.727Z,37.92
2023-02-13T14:16:31.351Z,37.96
2023-02-13T14:18:57.970Z,37.66
2023-02-13T14:21:24.819Z,37.71
2023-02-13T14:23:51.511Z,37.51
2023-02-13T14:26:18.330Z,38.49
2023-02-13T14:28:44.941Z,37.69
2023-02-13T14:31:11.711Z,37.87
2023-02-13T14:33:38.584Z,38.12
2023-02-13T14:36:05.558Z,38.60
2023-02-13T14:41:16.387Z,38.66
2023-02-13T14:43:43.008Z,38.96
2023-02-13T14:46:09.696Z,38.84
2023-02-13T14:48:36.365Z,38.56
2023-02-13T14:51:03.293Z,38.68
2023-02-13T14:53:29.953Z,38.70
2023-02-13T14:55:56.850Z,38.77
2023-02-13T14:58:23.855Z,39.28
2023-02-13T15:00:50.490Z,39.45
2023-02-13T15:03:17.194Z,39.15
2023-02-13T15:05:44.047Z,39.08
2023-02-13T15:08:10.700Z,39.29
2023-02-13T15:10:37.579Z,39.21
2023-02-13T15:13:04.589Z,39.54
2023-02-13T15:15:31.233Z,40.05
2023-02-13T15:17:57.843Z,39.97
2023-02-13T15:20:24.560Z,39.58
2023-02-13T15:22:51.484Z,39.85
2023-02-13T15:25:18.254Z,39.77
2023-02-13T15:27:44.902Z,40.04
2023-02-13T15:30:11.580Z,40.08
2023-02-13T15:32:38.571Z,40.65
2023-02-13T15:35:05.253Z,40.80
2023-02-13T15:37:31.868Z,40.87
2023-02-13T15:39:58.513Z,40.93
2023-02-13T15:42:25.287Z,41.34
2023-02-13T15:44:52.007Z,41.79
2023-02-13T15:47:18.665Z,41.81
2023-02-13T15:49:45.373Z,42.19
2023-02-13T15:52:12.020Z,42.15
2023-02-13T15:54:38.698Z,42.42
2023-02-13T15:57:05.470Z,42.52
2023-02-13T15:59:32.129Z,42.75
2023-02-13T16:01:58.786Z,43.28
2023-02-13T16:04:25.480Z,43.55
2023-02-13T16:06:52.135Z,43.78
2023-02-13T16:09:20.436Z,43.84
2023-02-13T16:11:48.000Z,43.86
2023-02-13T16:14:14.688Z,43.94
2023-02-13T16:16:41.368Z,44.73
2023-02-13T16:19:08.106Z,45.23
2023-02-13T16:21:34.757Z,45.85
2023-02-13T16:24:01.433Z,45.46
2023-02-13T16:26:28.122Z,45.66
2023-02-13T16:28:54.802Z,46.21
2023-02-13T16:31:21.487Z,46.48
2023-02-13T16:33:48.199Z,46.17
2023-02-13T16:36:14.867Z,47.23
2023-02-13T16:38:41.567Z,46.93
2023-02-13T16:41:08.232Z,46.89
2023-02-13T16:43:34.882Z,47.60
2023-02-13T16:46:01.564Z,47.35
2023-02-13T16:48:28.321Z,48.08
2023-02-13T16:50:54.966Z,47.48
2023-02-13T16:53:21.661Z,47.44
2023-02-13T16:55:50.385Z,48.29
2023-02-13T16:58:17.111Z,48.71
2023-02-13T17:00:43.863Z,48.47
2023-02-13T17:03:10.640Z,49.33
2023-02-13T17:05:37.344Z,49.55
2023-02-13T17:08:03.966Z,49.74
2023-02-13T17:10:30.620Z,49.64
2023-02-13T17:12:57.278Z,49.20
2023-02-13T17:15:23.971Z,49.08
2023-02-13T17:17:50.731Z,49.58
2023-02-13T17:20:17.779Z,49.49
2023-02-13T17:22:44.524Z,48.86
2023-02-13T17:25:11.540Z,49.47
2023-02-13T17:27:38.248Z,49.73
2023-02-13T17:30:04.971Z,49.48
2023-02-13T17:32:31.755Z,49.42
2023-02-13T17:34:58.379Z,49.81
2023-02-13T17:37:28.172Z,50.94
2023-02-13T17:39:54.831Z,50.72
2023-02-13T17:42:21.484Z,50.78
2023-02-13T17:44:48.133Z,51.21
2023-02-13T17:47:14.759Z,51.37
2023-02-13T17:49:41.490Z,51.27
2023-02-13T17:52:08.188Z,51.55
2023-02-13T17:54:34.824Z,51.37
2023-02-13T17:57:01.476Z,51.19
2023-02-13T17:59:28.169Z,51.74
2023-02-13T18:01:54.824Z,51.67
2023-02-13T18:04:21.776Z,52.03
2023-02-13T18:06:48.491Z,51.91
2023-02-13T18:09:15.157Z,51.60
2023-02-13T18:11:41.848Z,52.02
2023-02-13T18:14:08.472Z,52.25
2023-02-13T18:16:35.118Z,52.39
2023-02-13T18:19:01.778Z,52.81
2023-02-13T18:21:28.371Z,53.29
2023-02-13T18:23:55.057Z,53.54
2023-02-13T18:26:21.708Z,53.11
2023-02-13T18:28:48.385Z,53.87
2023-02-13T18:31:15.203Z,54.10
2023-02-13T18:33:41.990Z,54.99
2023-02-13T18:36:08.721Z,54.40
2023-02-13T18:38:35.346Z,54.43
2023-02-13T18:41:02.073Z,54.25
2023-02-13T18:43:28.685Z,55.23
2023-02-13T18:45:55.478Z,55.66
2023-02-13T18:48:22.155Z,55.07
2023-02-13T18:50:48.906Z,54.04
2023-02-13T18:53:15.597Z,54.69
2023-02-13T18:55:42.246Z,54.64
2023-02-13T18:58:08.886Z,54.67
2023-02-13T19:00:35.647Z,54.22
2023-02-13T19:03:02.364Z,54.72
2023-02-13T19:05:29.034Z,54.68
2023-02-13T19:07:55.677Z,55.77
2023-02-13T19:10:22.386Z,56.77
2023-02-13T19:12:49.058Z,57.64
2023-02-13T19:15:15.712Z,56.52
2023-02-13T19:17:42.385Z,56.31
2023-02-13T19:20:09.074Z,55.04
2023-02-13T19:22:35.789Z,55.39
2023-02-13T19:25:02.438Z,54.88
2023-02-13T19:27:29.032Z,54.98
2023-02-13T19:29:55.793Z,57.40
2023-02-13T19:32:22.498Z,56.95
2023-02-13T19:34:49.207Z,56.09
2023-02-13T19:37:15.912Z,55.76
2023-02-13T19:39:42.636Z,55.79
2023-02-13T19:42:09.321Z,56.02
2023-02-13T19:44:35.975Z,55.26
2023-02-13T19:47:02.643Z,55.26
2023-02-13T19:49:29.328Z,55.00
2023-02-13T19:51:55.967Z,55.49
2023-02-13T19:54:22.613Z,56.05
2023-02-13T19:56:49.516Z,56.09
2023-02-13T19:59:16.235Z,55.28
2023-02-13T20:01:43.075Z,55.62
2023-02-13T20:04:09.849Z,56.02
2023-02-13T20:06:36.558Z,56.56
2023-02-13T20:09:05.075Z,57.37
2023-02-13T20:11:31.747Z,57.14
2023-02-13T20:13:58.456Z,57.36
2023-02-13T20:16:25.073Z,56.96
2023-02-13T20:18:51.731Z,56.64
2023-02-13T20:21:18.380Z,55.77
2023-02-13T20:23:45.098Z,56.50
2023-02-13T20:26:11.798Z,56.73
2023-02-13T20:28:38.520Z,57.25
2023-02-13T20:31:05.287Z,56.91
2023-02-13T20:33:32.098Z,57.03
2023-02-13T20:35:58.710Z,57.29
2023-02-13T20:38:25.361Z,57.50
2023-02-13T20:40:52.004Z,57.22
2023-02-13T20:43:18.612Z,57.01
2023-02-13T20:45:45.427Z,58.55
2023-02-13T20:48:12.126Z,59.17
2023-02-13T20:50:38.875Z,59.80
2023-02-13T20:53:05.543Z,58.51
2023-02-13T20:55:32.154Z,58.12
2023-02-13T20:57:58.911Z,57.33
2023-02-13T21:00:25.616Z,57.49
2023-02-13T21:02:52.259Z,57.80
2023-02-13T21:05:18.968Z,60.04
2023-02-13T21:07:45.631Z,58.72
2023-02-13T21:10:12.333Z,58.94
2023-02-13T21:12:39.031Z,59.89
2023-02-13T21:15:05.672Z,59.29
2023-02-13T21:17:32.397Z,58.76
2023-02-13T21:19:59.128Z,58.71
2023-02-13T21:22:25.804Z,59.65
2023-02-13T21:24:52.427Z,59.68
2023-02-13T21:27:19.057Z,60.01
2023-02-13T21:29:45.693Z,59.02
2023-02-13T21:32:12.495Z,59.17
2023-02-13T21:34:39.240Z,58.90
2023-02-13T21:37:05.970Z,58.78
2023-02-13T21:39:32.621Z,58.54
2023-02-13T21:41:59.420Z,58.48
2023-02-13T21:44:26.042Z,58.35
2023-02-13T21:46:52.718Z,57.70
2023-02-13T21:49:19.355Z,57.29
2023-02-13T21:51:46.073Z,57.17
2023-02-13T21:54:12.772Z,57.57
2023-02-13T21:56:39.441Z,57.62
2023-02-13T21:59:06.158Z,58.26
2023-02-13T22:01:32.867Z,58.26
2023-02-13T22:04:00.975Z,58.79
2023-02-13T22:06:27.839Z,58.35
2023-02-13T22:08:54.569Z,57.39
2023-02-13T22:11:21.228Z,58.38
2023-02-13T22:13:47.893Z,58.74
2023-02-13T22:16:14.714Z,58.87
2023-02-13T22:18:41.363Z,58.42
2023-02-13T22:21:07.986Z,58.40
2023-02-13T22:23:36.664Z,59.09
2023-02-13T22:26:03.617Z,59.08
2023-02-13T22:28:30.256Z,58.81
2023-02-13T22:30:57.155Z,58.58
2023-02-13T22:33:23.956Z,58.76
2023-02-13T22:35:50.610Z,58.58
2023-02-13T22:38:17.349Z,58.83
2023-02-13T22:40:44.039Z,59.26
2023-02-13T22:43:10.657Z,59.25
2023-02-13T22:45:37.347Z,59.13
2023-02-13T22:48:03.974Z,60.29
2023-02-13T22:50:30.583Z,59.60
2023-02-13T22:52:57.228Z,59.65
2023-02-13T22:55:23.815Z,61.17
2023-02-13T22:57:50.490Z,61.22
2023-02-13T23:00:17.138Z,61.35
2023-02-13T23:02:43.781Z,60.69
2023-02-13T23:05:10.539Z,60.87
2023-02-13T23:07:37.153Z,60.80
2023-02-13T23:10:03.856Z,60.77
2023-02-13T23:12:30.497Z,60.61
2023-02-13T23:14:57.204Z,61.50
2023-02-13T23:20:07.839Z,61.78
2023-02-13T23:22:34.502Z,63.09
2023-02-13T23:25:01.177Z,61.78
2023-02-13T23:27:27.790Z,60.92
2023-02-13T23:29:54.541Z,60.25
2023-02-13T23:32:21.286Z,60.58
2023-02-13T23:34:47.967Z,60.83
2023-02-13T23:37:14.685Z,61.03
2023-02-13T23:39:41.346Z,61.16
2023-02-13T23:42:08.010Z,61.75
2023-02-13T23:44:34.643Z,61.64
2023-02-13T23:47:01.268Z,62.30
2023-02-13T23:49:27.934Z,62.14
2023-02-13T23:51:54.665Z,61.96
2023-02-13T23:54:21.279Z,61.69
2023-02-13T23:56:47.966Z,61.52
2023-02-13T23:59:14.707Z,61.58
